x

8419317 - Wells, Me (welm1) Weather Station

4:18pm - Fri 2nd Dec 2016 All times are EST. -5 hours from GMT.

  • Wind
    5mph, 10mph gusts
  • Sea Temp 48°f
  • 空気 Temp 47°f
  • Sea Pressure 1005mb
  • 8419317 - Wells, Me
  • 8419317 - Wells, Me

More Historic Weather Station data

Upgrade to MSW Pro to gain access to the past 30 days of data for over 8000 Wavebouys and Weather Stations around the globe.

Join Pro

Comparision Forecast

View Surf forecast
   
Fri 12/02 4:18pm 5 10 mph 1005mb 48f 47f
4:12pm 6 10 mph 1005mb 48f 48f
4:06pm 6 11 mph 1005mb 48f 48f
4:00pm 7 14 mph 1004.9mb 49f 48f
3:54pm 7 11 mph 1004.9mb 49f 48f
3:48pm 6 8 mph 1004.8mb 49f 48f
3:42pm 5 7 mph 1004.8mb 49f 48f
3:36pm 5 8 mph 1004.8mb 49f 49f
3:30pm 5 11 mph 1004.8mb 49f 49f
3:24pm 6 8 mph 1004.7mb 49f 49f
3:18pm 6 7 mph 1004.7mb 49f 49f
3:12pm 5 11 mph 1004.8mb 49f 49f
3:06pm 8 14 mph 1004.8mb 49f 50f
3:00pm 7 11 mph 1004.8mb 49f 51f
2:54pm 10 15 mph 1004.8mb 49f 51f
2:48pm 9 14 mph 1004.7mb 49f 51f
2:42pm 10 17 mph 1004.7mb 49f 51f
2:36pm 10 17 mph 1004.7mb 49f 50f
2:30pm 11 18 mph 1004.7mb 49f 50f
2:24pm 9 16 mph 1004.7mb 49f 51f
2:18pm 8 15 mph 1004.6mb 49f 51f
2:12pm 8 16 mph 1004.6mb 49f 51f
2:06pm 9 14 mph 1004.6mb 49f 51f
2:00pm 8 15 mph 1004.5mb 49f 51f
1:54pm 7 14 mph 1004.5mb 49f 52f
1:48pm 11 18 mph 1004.5mb 49f 51f
1:42pm 11 16 mph 1004.5mb 49f 51f
1:36pm 10 16 mph 1004.5mb 49f 51f
1:30pm 11 20 mph 1004.4mb 49f 51f
1:24pm 10 21 mph 1004.5mb 49f 51f
1:18pm 14 18 mph 1004.6mb 49f 50f
1:12pm 10 15 mph 1004.6mb 49f 50f
1:06pm 9 17 mph 1004.7mb 49f 50f
1:00pm 10 14 mph 1004.7mb 49f 50f
12:54pm 9 15 mph 1004.7mb 49f 50f
12:48pm 9 13 mph 1004.7mb 49f 50f
12:42pm 9 16 mph 1004.8mb 49f 49f
12:36pm 10 20 mph 1004.9mb 49f 49f
12:30pm 11 20 mph 1004.9mb 49f 49f
12:24pm 13 18 mph 1004.9mb 49f 50f
12:18pm 13 22 mph 1005mb 49f 49f
12:12pm 15 20 mph 1004.9mb 49f 49f
12:06pm 11 17 mph 1005mb 49f 48f
12:00pm 11 20 mph 1005.1mb 49f 48f
11:54am 10 17 mph 1005.2mb 49f 48f
11:48am 15 22 mph 1005.2mb 49f 48f
11:42am 14 22 mph 1005.3mb 49f 48f
11:36am 15 21 mph 1005.4mb 49f 48f
11:30am 10 18 mph 1005.4mb 49f 49f
11:24am 13 18 mph 1005.5mb 49f 48f
11:18am 8 15 mph 1005.5mb 49f 48f
11:12am 10 18 mph 1005.6mb 49f 48f
11:06am 11 21 mph 1005.6mb 49f 48f
11:00am 13 21 mph 1005.6mb 49f 47f
10:54am 10 22 mph 1005.7mb 49f 47f
10:48am 11 18 mph 1005.7mb 49f 47f
10:42am 11 18 mph 1005.7mb 49f 47f
10:36am 8 14 mph 1005.8mb 49f 47f
10:30am 9 21 mph 1005.9mb 49f 47f
10:24am 14 21 mph 1006mb 49f 46f
10:18am 7 14 mph 1006.1mb 48f 46f
10:12am 9 15 mph 1006.2mb 48f 46f
10:06am 9 15 mph 1006.3mb 48f 46f
10:00am 11 15 mph 1006.3mb 48f 45f
9:54am 9 14 mph 1006.4mb 48f 45f
9:48am 7 15 mph 1006.4mb 48f 45f
9:42am 9 15 mph 1006.5mb 48f 44f
9:36am 13 17 mph 1006.5mb 48f 44f
9:30am 9 14 mph 1006.6mb 48f 44f
9:24am 8 13 mph 1006.6mb 48f 43f
9:18am 9 13 mph 1006.6mb 47f 43f
9:12am 9 14 mph 1006.6mb 47f 43f
9:06am 8 14 mph 1006.5mb 47f 42f
9:00am 8 13 mph 1006.5mb 47f 42f
8:54am 11 16 mph 1006.4mb 47f 42f
8:48am 9 15 mph 1006.3mb 47f 42f
8:42am 8 15 mph 1006.4mb 47f 41f
8:36am 10 14 mph 1006.3mb 47f 41f
8:30am 8 13 mph 1006.4mb 47f 41f
8:24am 6 8 mph 1006.4mb 47f 40f
8:18am 6 9 mph 1006.5mb 47f 40f
8:12am 6 11 mph 1006.5mb 47f 40f
8:06am 3 7 mph 1006.4mb 47f 39f
8:00am 2 6 mph 1006.5mb 47f 39f
7:54am 2 5 mph 1006.4mb 47f 38f
7:48am 3 6 mph 1006.4mb 47f 39f
7:42am 3 6 mph 1006.5mb 47f 38f
7:36am 3 8 mph 1006.4mb 47f 38f
7:30am 5 6 mph 1006.3mb 47f 38f
7:24am 5 7 mph 1006.3mb 47f 38f
7:18am 5 8 mph 1006.2mb 47f 38f
7:12am 5 6 mph 1006.3mb 47f 37f
7:06am 3 7 mph 1006.2mb 47f 37f
7:00am 3 7 mph 1006.2mb 47f 37f
6:54am 5 6 mph 1006.2mb 47f 37f
6:48am 5 6 mph 1006.1mb 47f 37f
6:42am 5 7 mph 1006mb 47f 37f
6:36am 2 6 mph 1006mb 47f 37f
6:30am 2 5 mph 1006mb 47f 37f
6:24am 2 3 mph 1006mb 47f 37f
6:18am 2 5 mph 1006mb 47f 37f
6:12am 2 5 mph 1006mb 47f 37f
6:06am 3 6 mph 1005.9mb 47f 37f
6:00am 5
mph
1005.9mb 47f 37f
5:54am 3 5 mph 1005.9mb 47f 37f
5:48am 2 5 mph 1005.9mb 47f 38f
5:42am 3 6 mph 1005.9mb 47f 38f
5:36am 5 7 mph 1005.8mb 47f 38f
5:30am 5 6 mph 1005.8mb 48f 37f
5:24am 5 6 mph 1005.8mb 48f 37f
5:18am 3 6 mph 1005.6mb 48f 37f
5:12am 6 7 mph 1005.6mb 48f 37f
5:06am 7 8 mph 1005.4mb 48f 37f
5:00am 7 8 mph 1005.3mb 48f 37f
4:54am 6 7 mph 1005.2mb 48f 37f
4:48am 5 6 mph 1005.1mb 48f 37f
4:42am 2 5 mph 1005mb 48f 38f
4:36am 5 7 mph 1004.9mb 48f 38f
4:30am 5 8 mph 1004.8mb 48f 38f
4:24am 5 8 mph 1004.7mb 48f 38f
4:18am 6 8 mph 1004.6mb 48f 38f
4:12am 6 10 mph 1004.5mb 48f 38f
4:06am 7 10 mph 1004.5mb 48f 38f
4:00am 6 10 mph 1004.6mb 48f 38f
3:54am 7 9 mph 1004.7mb 48f 38f
3:48am 7 9 mph 1004.7mb 48f 38f
3:42am 7 9 mph 1004.7mb 48f 39f
3:36am 6 9 mph 1004.7mb 48f 39f
3:30am 5 8 mph 1004.6mb 48f 39f
3:24am 5 8 mph 1004.6mb 48f 39f
3:18am 6 9 mph 1004.6mb 48f 39f
3:12am 5 7 mph 1004.6mb 48f 39f
3:06am 5 7 mph 1004.5mb 48f 39f
3:00am 5 6 mph 1004.6mb 48f 40f
2:54am 3 7 mph 1004.6mb 48f 40f
2:48am 5 7 mph 1004.4mb 48f 40f
2:42am 6 9 mph 1004.3mb 48f 40f
2:36am 6 9 mph 1004.3mb 48f 40f
2:30am 7 10 mph 1004.4mb 48f 40f
2:24am 6 9 mph 1004.5mb 48f 40f
2:18am 6 9 mph 1004.4mb 48f 40f
2:12am 7 8 mph 1004.5mb 48f 41f
2:06am 3 8 mph 1004.5mb 48f 41f
2:00am 3 5 mph 1004.4mb 48f 41f
1:54am 3 8 mph 1004.2mb 48f 41f
1:48am 3 7 mph 1004.2mb 48f 41f
1:42am 6 9 mph 1004.1mb 48f 41f
1:36am 6 7 mph 1004.1mb 48f 41f
1:30am 2 5 mph 1004mb 48f 41f
1:24am 3 6 mph 1003.9mb 48f 41f
1:18am 5 7 mph 1003.9mb 48f 41f
1:12am 5 8 mph 1003.8mb 48f 41f
1:06am 5 7 mph 1003.7mb 48f 41f
1:00am 3 7 mph 1003.6mb 48f 41f
12:54am 5 9 mph 1003.7mb 49f 42f
12:48am 7 10 mph 1003.6mb 49f 42f
12:42am 7 10 mph 1003.5mb 49f 42f
12:36am 6 11 mph 1003.4mb 49f 42f
12:30am 7 13 mph 1003.3mb 49f 42f
12:24am 6 10 mph 1003.2mb 49f 42f
12:18am 5 9 mph 1003.2mb 49f 42f
12:12am 5 9 mph 1003.1mb 49f 42f
12:06am 7 11 mph 1003mb 49f 42f
12:00am 5 11 mph 1002.9mb 49f 42f
Thu 12/01 11:54pm 6 9 mph 1002.9mb 49f 42f
11:48pm 5 10 mph 1002.8mb 49f 42f
11:42pm 5 7 mph 1002.8mb 49f 42f
11:36pm 2 8 mph 1002.8mb 49f 43f
11:30pm 6 10 mph 1002.8mb 49f 43f
11:24pm 6 13 mph 1002.7mb 49f 43f
11:18pm 7 15 mph 1002.6mb 49f 43f
11:12pm 7 10 mph 1002.7mb 49f 43f
11:06pm 6 10 mph 1002.8mb 49f 42f
11:00pm 7 8 mph 1002.8mb 49f 43f
10:54pm 3 7 mph 1002.8mb 49f 42f
10:48pm 6 10 mph 1002.6mb 49f 42f
10:42pm 6 9 mph 1002.5mb 49f 42f
10:36pm 6 10 mph 1002.5mb 49f 42f
10:30pm 7 11 mph 1002.3mb 49f 42f
10:24pm 6 9 mph 1002.3mb 49f 41f
10:18pm 5 9 mph 1002.3mb 49f 41f
10:12pm 6 8 mph 1002.3mb 49f 42f
10:06pm 6 7 mph 1002.2mb 49f 42f
10:00pm 6 8 mph 1002.1mb 49f 42f
9:30pm 6 9 mph 1001.7mb 48f 42f
9:24pm 6 9 mph 1001.7mb 48f 42f
9:18pm 6 8 mph 1001.6mb 49f 43f
9:12pm 6 9 mph 1001.5mb 49f 43f
9:06pm 6 8 mph 1001.5mb 49f 43f
9:00pm 7 9 mph 1001.4mb 49f 43f
8:30pm 7 9 mph 1001.1mb 48f 44f
8:24pm 7 10 mph 1001.1mb 48f 44f
8:18pm 8 10 mph 1001.1mb 48f 44f
8:12pm 8 11 mph 1001mb 48f 44f
8:06pm 6 9 mph 1000.9mb 48f 44f
8:00pm 6 8 mph 1001.1mb 48f 44f
7:54pm 5 7 mph 1001mb 48f 44f
7:48pm 7 11 mph 1000.9mb 48f 45f
7:42pm 7 10 mph 1000.9mb 48f 45f
7:36pm 8 9 mph 1000.8mb 48f 45f
7:30pm 8 13 mph 1000.8mb 48f 45f
7:24pm 9 14 mph 1000.7mb 48f 45f
7:18pm 9 13 mph 1000.6mb 48f 45f
7:12pm 8 14 mph 1000.6mb 48f 46f
7:06pm 8 14 mph 1000.6mb 48f 46f
7:00pm 10 17 mph 1000.5mb 48f 46f
6:54pm 9 14 mph 1000.4mb 48f 46f
6:48pm 10 14 mph 1000.4mb 48f 46f
6:42pm 7 18 mph 1000.3mb 48f 46f
6:36pm 13 16 mph 1000.2mb 48f 47f
6:30pm 10 17 mph 1000.2mb 48f 47f
6:24pm 10 16 mph 1000.2mb 48f 47f
6:18pm 9 15 mph 1000.1mb 48f 47f
6:12pm 10 16 mph 1000.1mb 48f 47f
6:06pm 10 16 mph 1000mb 48f 47f
6:00pm 8 14 mph 1000mb 48f 47f
5:54pm 6 14 mph 1000mb 48f 47f
5:48pm 9 14 mph 999.9mb 48f 47f
5:42pm 9 14 mph 999.9mb 48f 47f
5:36pm 8 13 mph 999.9mb 48f 47f
5:30pm 7 14 mph 999.9mb 48f 47f
5:24pm 7 10 mph 999.8mb 48f 47f
5:18pm 6 14 mph 999.8mb 48f 47f
5:12pm 6 13 mph 999.8mb 48f 48f
5:06pm 7 9 mph 999.7mb 48f 48f
5:00pm 8 10 mph 999.6mb 48f 48f
4:54pm 7 10 mph 999.5mb 48f 48f
4:48pm 8 14 mph 999.4mb 48f 49f
4:42pm 10 17 mph 999.4mb 48f 49f
4:36pm 9 15 mph 999.3mb 48f 49f
4:30pm 10 15 mph 999.2mb 48f 49f
4:24pm 9 16 mph 999.1mb 48f 49f
4:18pm 9 15 mph 999mb 48f 49f
4:12pm 9 16 mph 998.9mb 48f 50f
4:06pm 9 21 mph 998.8mb 49f 50f
4:00pm 15 22 mph 998.7mb 49f 50f
3:54pm 11 18 mph 998.5mb 49f 51f
3:48pm 14 21 mph 998.4mb 49f 51f
3:42pm 15 25 mph 998.3mb 49f 51f
3:36pm 17 25 mph 998.3mb 49f 51f
3:30pm 13 22 mph 998.1mb 49f 51f
3:24pm 14 22 mph 998.1mb 49f 52f
3:18pm 17 22 mph 997.9mb 49f 52f
3:12pm 15 20 mph 997.9mb 49f 52f
3:06pm 10 16 mph 997.8mb 49f 53f
3:00pm 8 14 mph 997.8mb 49f 53f
2:54pm 5 10 mph 997.6mb 49f 54f
2:48pm 8 14 mph 997.5mb 49f 54f
2:42pm 9 14 mph 997.4mb 49f 54f
2:36pm 6 10 mph 997.3mb 49f 54f
2:30pm 7 10 mph 997.2mb 49f 54f
2:24pm 6 11 mph 997.1mb 49f 54f
2:18pm 7 13 mph 997mb 49f 54f
2:12pm 8 15 mph 996.8mb 49f 54f
2:06pm 8 15 mph 996.8mb 49f 54f
2:00pm 7 14 mph 996.8mb 49f 54f
1:54pm 10 17 mph 996.8mb 49f 54f
1:48pm 10 16 mph 996.7mb 49f 54f
12:54pm 8 14 mph 996.7mb 49f 53f
12:48pm 5 8 mph 996.8mb 49f 53f
12:30pm 6 9 mph 996.8mb 49f 53f
12:24pm 7 11 mph 996.9mb 49f 53f
12:18pm 9 13 mph 996.8mb 49f 53f
12:12pm 7 15 mph 996.9mb 49f 53f
12:06pm 10 15 mph 996.8mb 49f 52f
12:00pm 9 16 mph 996.8mb 49f 52f
11:54am 10 13 mph 996.7mb 49f 51f
11:48am 8 11 mph 996.8mb 49f 51f
11:42am 7 13 mph 996.8mb 49f 51f
11:36am 6 13 mph 996.8mb 49f 50f
11:30am 7 11 mph 996.7mb 49f 50f
11:24am 8 14 mph 996.8mb 49f 49f
11:18am 11 15 mph 996.9mb 49f 49f
11:12am 11 17 mph 996.9mb 49f 48f
11:06am 13 17 mph 996.8mb 49f 48f
11:00am 13 20 mph 996.8mb 49f 47f
10:54am 9 17 mph 996.8mb 49f 47f
10:48am 15 22 mph 996.8mb 49f 47f
10:42am 14 18 mph 996.9mb 49f 47f
10:36am 9 15 mph 997mb 49f 47f
10:30am 10 15 mph 997mb 49f 47f
10:24am 9 14 mph 996.9mb 49f 46f
10:18am 8 16 mph 997mb 49f 46f
10:12am 8 14 mph 997.1mb 49f 46f
10:06am 9 13 mph 997mb 49f 46f
10:00am 8 14 mph 997mb 49f 46f
9:54am 9 16 mph 996.8mb 49f 46f
9:48am 14 17 mph 996.7mb 48f 46f
9:42am 13 23 mph 996.6mb 48f 46f
9:36am 10 17 mph 996.4mb 48f 46f
9:30am 11 16 mph 996.3mb 48f 45f
9:24am 16 22 mph 996.2mb 48f 45f
9:18am 14 18 mph 996mb 48f 45f
9:12am 14 21 mph 995.9mb 48f 45f
9:06am 14 21 mph 995.7mb 48f 45f
9:00am 13 20 mph 995.7mb 48f 44f
8:54am 13 17 mph 995.5mb 48f 44f
8:48am 14 17 mph 995.5mb 48f 44f
8:42am 14 18 mph 995.5mb 48f 45f
8:36am 14 21 mph 995.6mb 48f 45f
8:30am 14 20 mph 995.4mb 48f 44f
8:24am 13 20 mph 995.2mb 48f 45f
8:18am 15 22 mph 994.8mb 48f 45f
8:12am 13 25 mph 994.5mb 47f 46f
8:06am 14 20 mph 994.7mb 47f 48f
8:00am 16 20 mph 994.7mb 47f 48f
7:54am 13 20 mph 995mb 47f 48f
7:48am 14 18 mph 995mb 47f 48f
7:42am 15 21 mph 994.9mb 46f 48f
7:36am 11 17 mph 994.6mb 46f 48f
7:30am 14 18 mph 994.2mb 46f 48f
7:24am 16 21 mph 993.9mb 46f 49f
7:18am 14 20 mph 994.1mb 46f 49f
7:12am 11 16 mph 994.4mb 46f 49f
7:06am 14 20 mph 993.8mb 46f 49f
7:00am 11 15 mph 994.1mb 46f 49f
6:54am 10 14 mph 994.7mb 46f 49f
6:48am 9 11 mph 994.8mb 46f 49f
6:42am 9 15 mph 994.6mb 46f 49f
6:36am 14 16 mph 993.9mb 46f 49f
6:30am 13 15 mph 994.6mb 46f 49f
6:24am 10 13 mph 995.1mb 46f 49f
6:18am 11 14 mph 995.5mb 46f 49f
6:12am 10 14 mph 995.6mb 46f 49f
6:06am 10 14 mph 995.8mb 46f 49f
6:00am 13 15 mph 995.9mb 46f 49f
5:54am 11 16 mph 996.2mb 46f 49f
5:48am 14 18 mph 996.4mb 47f 49f
5:42am 15 20 mph 996.4mb 47f 49f
5:36am 16 20 mph 996.5mb 47f 49f
5:30am 16 21 mph 996.6mb 47f 49f
5:24am 18 24 mph 996.8mb 47f 49f
5:18am 16 22 mph 997.2mb 47f 49f
5:12am 18 25 mph 997.3mb 47f 49f
5:06am 16 24 mph 997.4mb 47f 49f
5:00am 21 25 mph 997.7mb 47f 49f
4:54am 22 26 mph 997.8mb 47f 49f
4:48am 21 25 mph 998.1mb 47f 49f
4:42am 21 26 mph 998.2mb 47f 48f
4:36am 20 26 mph 998.4mb 47f 48f
4:30am 20 26 mph 998.6mb 47f 48f
4:24am 20 28 mph 999mb 47f 48f
4:18am 18 28 mph 999.5mb 47f 48f
4:12am 18 24 mph 999.6mb 47f 48f
4:06am 16 23 mph 1000mb 47f 48f
4:00am 20 26 mph 1000.2mb 47f 48f
3:54am 18 26 mph 1000.4mb 47f 48f
3:48am 22 28 mph 1000.6mb 47f 48f
3:42am 22 28 mph 1000.7mb 47f 48f
3:36am 20 25 mph 1001.1mb 47f 48f
3:30am 22 26 mph 1001mb 47f 48f
3:24am 21 25 mph 1001.4mb 47f 48f
3:18am 22 24 mph 1001.8mb 47f 48f
3:12am 17 23 mph 1002.3mb 47f 48f
3:06am 18 23 mph 1002.8mb 47f 48f
3:00am 17 23 mph 1003.4mb 47f 48f
2:54am 17 22 mph 1004mb 47f 48f
2:48am 16 21 mph 1004.4mb 47f 48f
2:42am 16 22 mph 1004.6mb 47f 49f
2:36am 16 20 mph 1004.8mb 47f 49f
2:30am 14 17 mph 1004.8mb 47f 49f
2:24am 10 11 mph 1005.6mb 47f 48f
2:18am 10 14 mph 1005.9mb 47f 48f
2:12am 11 14 mph 1005.8mb 47f 48f
2:06am 10 14 mph 1006.6mb 47f 48f
2:00am 9 13 mph 1006.7mb 47f 48f
1:54am 6 9 mph 1006.7mb 47f 43f
1:48am 5 11 mph 1007mb 47f 46f
1:42am 8 10 mph 1007.2mb 47f 48f
1:36am 8 10 mph 1007.5mb 47f 48f
1:30am 9 13 mph 1007.5mb 47f 48f
1:24am 10 13 mph 1007.7mb 47f 48f
1:18am 9 14 mph 1007.9mb 47f 48f
1:12am 10 14 mph 1008.2mb 47f 48f
1:06am 11 14 mph 1007.8mb 47f 48f
1:00am 13 17 mph 1007.3mb 48f 48f
12:54am 11 16 mph 1007.5mb 48f 48f
12:48am 11 17 mph 1007.6mb 48f -
12:42am 16 21 mph 1007.7mb 48f -
12:36am 15 20 mph 1007.7mb 48f -
12:30am 16 21 mph 1007.9mb 48f 48f
12:24am 17 23 mph 1008.1mb 48f 48f
12:18am 16 21 mph 1007.8mb 48f 47f
12:12am 15 20 mph 1007.9mb 48f 47f
12:06am 15 21 mph 1008.6mb 48f 47f
12:00am 16 20 mph 1008.8mb 48f 47f
Wed 11/30 11:54pm 16 20 mph 1008.9mb 47f 47f
11:48pm 16 21 mph 1008.9mb 47f 47f
11:42pm 16 21 mph 1008.9mb 47f 47f
11:36pm 16 21 mph 1009.3mb 47f 47f
11:30pm 16 21 mph 1009.6mb 47f 47f
11:24pm 16 20 mph 1009.9mb 47f 47f
11:18pm 17 21 mph 1010.2mb 47f 47f
11:12pm 16 22 mph 1010.5mb 48f 47f
11:06pm 16 18 mph 1010.7mb 48f 47f
11:00pm 16 21 mph 1010.8mb 47f 47f
10:54pm 16 21 mph 1011mb 47f 47f
10:48pm 15 20 mph 1011.2mb 47f 47f
10:42pm 16 20 mph 1011.3mb 47f 47f
10:36pm 16 20 mph 1011.6mb 47f 47f
10:30pm 17 21 mph 1011.6mb 47f 47f
10:24pm 17 21 mph 1011.8mb 47f 47f
10:18pm 15 21 mph 1012.1mb 47f 47f
10:12pm 15 21 mph 1012.3mb 47f 47f
10:06pm 17 22 mph 1012.4mb 47f 47f
10:00pm 16 22 mph 1012.7mb 47f 47f
9:54pm 16 20 mph 1012.9mb 47f 47f
9:48pm 15 22 mph 1013.2mb 47f 47f
9:42pm 15 22 mph 1013mb 47f 47f
9:36pm 17 22 mph 1012.8mb 47f 47f
9:30pm 14 21 mph 1012.8mb 47f 47f
9:24pm 15 20 mph 1013mb 47f 47f
9:18pm 16 21 mph 1013.1mb 47f 47f
9:12pm 14 18 mph 1013.4mb 47f 47f
9:06pm 15 20 mph 1013.4mb 47f 47f
9:00pm 16 22 mph 1013.5mb 47f 47f
8:54pm 17 21 mph 1013.6mb 47f 47f
8:48pm 17 20 mph 1014mb 47f 46f
8:42pm 15 23 mph 1014mb 47f 46f
8:36pm 17 22 mph 1013.8mb 47f 46f
8:30pm 16 21 mph 1014mb 47f 46f
8:24pm 17 22 mph 1014.2mb 46f 46f
8:18pm 20 23 mph 1014.2mb 46f 46f
8:12pm 15 22 mph 1014.2mb 46f 46f
8:06pm 18 22 mph 1014.2mb 46f 46f
8:00pm 17 23 mph 1014.3mb 46f 46f
7:54pm 18 22 mph 1014.5mb 46f 46f
7:48pm 16 21 mph 1014.7mb 46f 46f
7:42pm 15 20 mph 1014.8mb 46f 46f
7:36pm 15 22 mph 1015mb 46f 46f
7:30pm 14 23 mph 1014.9mb 46f 46f
7:24pm 20 24 mph 1015mb 46f 46f
7:18pm 16 23 mph 1015mb 46f 46f
7:12pm 17 23 mph 1015.1mb 46f 46f
7:06pm 20 24 mph 1015.2mb 46f 45f
7:00pm 20 23 mph 1015.4mb 46f 46f
6:54pm 17 21 mph 1015.7mb 46f 46f
6:48pm 17 21 mph 1015.9mb 46f 46f
6:42pm 13 16 mph 1016.2mb 46f 45f
6:36pm 13 18 mph 1016.1mb 46f 45f
6:00pm 10 15 mph 1015.3mb 47f 44f
5:54pm 10 17 mph 1015.3mb 47f 44f
5:48pm 8 11 mph 1015.4mb 47f 43f
5:42pm 7 8 mph 1015.5mb 47f 42f
5:36pm 6 10 mph 1015.6mb 47f 41f
5:30pm 8 10 mph 1015.7mb 47f 41f
5:24pm 7 9 mph 1015.9mb 47f 41f
5:18pm 7 8 mph 1016.2mb 47f 41f
5:12pm 6 8 mph 1016.4mb 47f 41f
5:06pm 6 8 mph 1016.4mb 47f 41f
5:00pm 7 8 mph 1016.4mb 47f 41f
4:54pm 6 8 mph 1016.4mb 47f 42f
4:48pm 7 8 mph 1016.5mb 47f 42f
4:42pm 6 8 mph 1016.5mb 47f 42f
4:36pm 7 10 mph 1016.7mb 47f 42f
4:30pm 7 9 mph 1016.8mb 47f 42f
4:24pm 7 9 mph 1016.6mb 47f 42f
4:18pm 6 8 mph 1016.5mb 47f 43f
4:12pm 6 7 mph 1016.6mb 47f 43f
4:06pm 6 7 mph 1016.6mb 47f 43f
4:00pm 6 8 mph 1016.5mb 47f 43f
3:54pm 7 9 mph 1016.5mb 47f 43f
3:48pm 7 9 mph 1016.6mb 47f 43f
3:42pm 6 8 mph 1016.6mb 47f 43f
3:36pm 7 10 mph 1016.6mb 47f 43f
3:30pm 8 9 mph 1016.5mb 47f 43f
3:24pm 7 9 mph 1016.5mb 47f 43f
3:18pm 7 9 mph 1016.5mb 47f 44f
3:12pm 8 11 mph 1016.4mb 47f 44f
3:06pm 8 11 mph 1016.3mb 47f 44f
3:00pm 8 10 mph 1016.2mb 47f 44f
2:54pm 9 11 mph 1016.2mb 47f 44f
2:48pm 8 11 mph 1016mb 47f 44f
2:42pm 9 11 mph 1016mb 47f 44f
2:36pm 9 11 mph 1016mb 47f 44f
2:30pm 10 13 mph 1016mb 47f 44f
2:24pm 8 15 mph 1016.1mb 47f 44f
2:18pm 11 16 mph 1015.9mb 47f 44f
2:12pm 8 14 mph 1015.9mb 47f 44f
2:06pm 11 15 mph 1015.8mb 47f 44f
2:00pm 13 14 mph 1015.8mb 47f 44f
1:54pm 11 13 mph 1015.7mb 47f 44f
1:48pm 10 11 mph 1015.7mb 47f 44f
1:42pm 6 10 mph 1015.6mb 47f 43f
1:36pm 7 10 mph 1015.6mb 47f 43f
1:30pm 8 11 mph 1015.5mb 47f 43f
1:24pm 9 13 mph 1015.5mb 47f 43f
1:18pm 7 9 mph 1015.7mb 47f 43f
1:12pm 8 10 mph 1015.8mb 47f 43f
1:06pm 7 9 mph 1015.9mb 47f 43f
1:00pm 7 9 mph 1016.1mb 47f 43f
12:54pm 9 10 mph 1016.2mb 47f 43f
12:48pm 8 9 mph 1016.2mb 47f 43f
12:42pm 7 8 mph 1016.3mb 47f 43f
12:36pm 6 9 mph 1016.4mb 47f 43f
12:30pm 6 8 mph 1016.5mb 47f 43f
12:24pm 6 7 mph 1016.6mb 47f 43f
12:18pm 5 6 mph 1016.8mb 47f 43f
12:12pm 2 3 mph 1016.7mb 47f 43f
12:06pm  -  1 mph 1017mb 47f 43f
12:00pm  -  mph 1017.1mb 47f 43f
11:54am  -  1 mph 1017.1mb 47f 43f
11:48am  -  2 mph 1017.1mb 47f 42f
11:42am 2 3 mph 1017mb 47f 42f
11:36am 1 2 mph 1017mb 47f 42f
11:30am 3 6 mph 1016.6mb 47f 42f
11:24am 6
mph
1016.3mb 47f 42f
11:18am 6 7 mph 1016.1mb 47f 42f
11:12am 6 7 mph 1016.1mb 47f 42f
11:06am 3 5 mph 1016.1mb 47f 42f
11:00am 3 6 mph 1016.1mb 47f 42f
10:54am 3 6 mph 1016mb 47f 42f
10:48am 3 5 mph 1016.1mb 47f 42f
10:42am 2 5 mph 1016.1mb 47f 42f
10:36am 3 5 mph 1016.4mb 47f 42f
10:30am 2 3 mph 1016.4mb 47f 42f
10:24am 3 6 mph 1016.4mb 47f 42f
10:18am 6
mph
1016.3mb 47f 41f
10:12am 3 6 mph 1016.3mb 47f 41f
10:06am 5 6 mph 1016.3mb 47f 41f
10:00am 3 6 mph 1016.2mb 47f 41f
9:54am 3 9 mph 1015.9mb 47f 41f
9:48am 6 8 mph 1015.7mb 47f 41f
9:42am 7 11 mph 1015.7mb 47f 41f
9:36am 7 11 mph 1015.9mb 47f 41f
9:30am 8 9 mph 1015.6mb 47f 41f
9:24am 7 9 mph 1015.8mb 47f 40f
9:18am 7 8 mph 1015.6mb 47f 41f
9:12am 5 6 mph 1015.9mb 47f 40f
9:06am 5 7 mph 1015.8mb 47f 40f
9:00am 5 6 mph 1015.7mb 47f 40f
8:54am 3 5 mph 1015.5mb 47f 39f
8:48am 2
mph
1015.7mb 47f 39f
8:42am 2 3 mph 1016.1mb 47f 39f
8:36am  -  1 mph 1015.8mb 47f 39f
8:30am  -  2 mph 1015.7mb 47f 39f
8:24am  -  1 mph 1015.6mb 47f 39f
8:18am  -  1 mph 1015.4mb 47f 38f
8:12am 1 3 mph 1015.1mb 47f 38f
8:06am 3
mph
1015.2mb 47f 38f
8:00am 3 5 mph 1015.4mb 47f 37f
7:54am 3 5 mph 1015.3mb 46f 37f
7:48am 3
mph
1015.4mb 46f 37f
7:42am 1
mph
1015.2mb 46f 37f
7:36am 1 3 mph 1015.4mb 46f 37f
7:30am 2 3 mph 1015.4mb 46f 37f
7:24am  -  1 mph 1015mb 46f 37f
7:18am  -  1 mph 1014.6mb 46f 37f
7:12am  -  2 mph 1014.7mb 46f 37f
7:06am 2 5 mph 1014.8mb 46f 37f
7:00am 2 3 mph 1014.6mb 46f 36f
6:54am 2 5 mph 1014.2mb 46f 35f
6:48am 5
mph
1014mb 46f 36f
6:42am 3 5 mph 1014.1mb 46f 36f
6:36am 3
mph
1014.1mb 46f 36f
6:30am 2 3 mph 1013.9mb 46f 37f
6:24am 2
mph
1013.9mb 46f 37f
6:18am 2
mph
1013.9mb 46f 37f
6:12am 2 3 mph 1014mb 46f 37f
6:06am  -  1 mph 1013.9mb 46f 38f
6:00am 1 3 mph 1013.9mb 46f 38f
5:54am 2 5 mph 1014.1mb 46f 38f
5:48am 3 5 mph 1014mb 46f 38f
5:42am 3 5 mph 1013.6mb 46f 38f
5:36am 2 3 mph 1013.6mb 46f 38f
5:30am 1 2 mph 1013.5mb 46f 39f
5:24am 1 3 mph 1013.2mb 46f 38f
5:18am 2 3 mph 1013mb 46f 39f
5:12am 3 5 mph 1013mb 46f 39f
5:06am 3 5 mph 1012.9mb 46f 39f
5:00am 3
mph
1012.4mb 46f 39f
4:54am 3
mph
1012.6mb 46f 39f
4:48am 3
mph
1012.7mb 46f 39f
4:42am 1 2 mph 1012.6mb 46f 39f
4:36am 2 6 mph 1012.5mb 46f 39f
4:30am 5 6 mph 1012.3mb 46f 39f
4:24am 6 7 mph 1012.3mb 46f 40f
4:18am 6 11 mph 1012.3mb 46f 40f
4:12am 8 10 mph 1012.2mb 46f 40f
4:06am 8 10 mph 1012.2mb 46f 39f
4:00am 8 11 mph 1012.1mb 46f 39f
3:54am 9 14 mph 1012mb 46f 40f
3:48am 9 13 mph 1011.9mb 46f 40f
3:42am 8 13 mph 1012mb 46f 40f
3:36am 9 13 mph 1011.8mb 46f 40f
3:30am 9 10 mph 1011.8mb 47f 39f
3:24am 7 10 mph 1012mb 46f 39f
3:18am 3 5 mph 1012mb 46f 39f
3:12am 2 5 mph 1012mb 46f 39f
3:06am 2 5 mph 1012mb 47f 39f
3:00am 2 3 mph 1011.9mb 47f 39f
2:54am 2 5 mph 1011.8mb 47f 39f
2:48am 2 3 mph 1011.7mb 47f 39f
2:42am 2 3 mph 1011.5mb 47f 39f
2:36am 2 5 mph 1011.5mb 47f 39f
2:30am 2 5 mph 1011.3mb 47f 39f
2:24am 3 6 mph 1011.4mb 47f 39f
2:18am 5 6 mph 1011.3mb 47f 39f
2:12am 6 8 mph 1011.1mb 47f 39f
2:06am 6 8 mph 1011mb 47f 39f
2:00am 5 7 mph 1011.1mb 47f 39f
1:54am 5 8 mph 1010.9mb 47f 39f
1:48am 6 8 mph 1010.9mb 47f 39f
1:42am 5 7 mph 1010.6mb 47f 39f
1:36am 6 8 mph 1010.5mb 47f 39f
1:30am 7 9 mph 1010.5mb 47f 39f
1:24am 7 10 mph 1010.3mb 47f 39f
1:18am 7 10 mph 1010.3mb 47f 39f
1:12am 6 10 mph 1010.2mb 47f 39f
1:06am 7 10 mph 1010.3mb 47f 40f
1:00am 7 10 mph 1010.2mb 47f 40f
12:54am 8 10 mph 1010.1mb 47f 40f
12:48am 10 13 mph 1010.1mb - -
12:42am 9 10 mph 1010mb - -
12:36am 8 10 mph 1010.1mb - -
12:30am 8 10 mph 1010.1mb 47f 40f
12:24am 7 11 mph 1010.2mb 47f 40f
12:18am 7 11 mph 1010.1mb 47f 40f
12:12am 9 13 mph 1009.9mb 47f 40f
12:06am 10 14 mph 1009.8mb 47f 40f
12:00am 10 15 mph 1009.6mb 47f 40f
Tue 11/29 11:54pm 9 17 mph 1009.6mb 47f 40f
11:48pm 11 15 mph 1009.5mb 47f 40f
11:42pm 13 16 mph 1009.5mb 47f 40f
11:36pm 11 17 mph 1009.6mb 47f 39f
11:30pm 10 13 mph 1009.7mb 47f 39f
11:24pm 8 13 mph 1009.7mb 47f 39f
11:18pm 9 13 mph 1009.7mb 47f 39f
11:12pm 9 13 mph 1009.6mb 47f 39f
11:06pm 8 15 mph 1009.6mb 47f 39f
11:00pm 10 14 mph 1009.6mb 47f 39f
10:54pm 9 13 mph 1009.7mb 47f 39f
10:48pm 10 15 mph 1009.7mb 47f 39f
10:42pm 11 16 mph 1009.7mb 47f 39f
10:36pm 11 17 mph 1009.8mb 47f 39f
10:30pm 11 14 mph 1009.7mb 47f 39f
10:24pm 14 20 mph 1009.7mb 47f 39f
10:18pm 14 20 mph 1009.6mb 47f 39f
10:12pm 14 17 mph 1009.6mb 47f 39f
10:06pm 13 16 mph 1009.4mb 47f 39f
10:00pm 14 17 mph 1009.4mb 47f 39f
9:54pm 13 16 mph 1009.4mb 47f 39f
9:48pm 15 17 mph 1009.5mb 47f 40f
9:42pm 15 18 mph 1009.5mb 47f 40f
9:36pm 13 16 mph 1009.6mb 47f 40f
9:30pm 13 15 mph - 47f 40f
9:24pm 14 17 mph - 47f 41f
9:18pm  -  mph 1009.6mb 47f 42f
9:12pm  -  mph 1009.6mb 47f 43f
9:06pm  -  mph 1009.7mb 47f 46f
9:00pm 3 9 mph 1009.8mb 47f 52f
8:54pm 6 10 mph 1009.9mb 47f 52f
8:48pm 7 11 mph - 47f 52f
8:42pm 8 13 mph - 47f 52f
8:36pm 6 8 mph - 47f 52f
8:30pm 7 13 mph 1010mb 47f 52f
8:24pm 6 10 mph 1010mb 47f 52f
8:18pm 10 15 mph 1010.2mb 47f 52f
8:12pm 14 18 mph 1010.4mb 47f 52f
8:06pm 13 16 mph 1010.7mb 46f 52f
8:00pm 9 16 mph - 46f 52f
7:54pm 11 17 mph - 46f 52f
7:48pm 10 18 mph - 46f 52f
7:42pm 11 15 mph - 45f 52f
7:36pm 13 16 mph - 45f 52f
7:30pm 11 18 mph 1011.4mb 45f 51f
7:24pm 15 20 mph 1011.6mb 45f 51f
7:18pm  -  mph 1011.6mb 44f 51f
7:12pm  -  mph 1011.8mb 44f 51f
7:06pm  -  mph 1011.9mb 44f 51f
7:00pm  -  mph - 44f 51f
6:54pm  -  mph - 44f 51f
6:48pm 16 23 mph 1011.9mb 44f -
6:42pm 17 22 mph 1012.1mb 44f -
6:36pm 17 21 mph 1012.1mb 44f -
6:30pm 17 23 mph - 44f 50f
6:24pm 20 25 mph - 44f 50f
6:18pm 20 23 mph 1012.5mb 44f 50f
6:12pm 18 21 mph 1012.8mb 45f 50f
6:06pm 15 20 mph 1012.8mb 45f 50f
6:00pm 15 18 mph - 45f 50f
5:54pm 16 21 mph - 45f 50f
5:48pm  -  mph - 45f -
5:42pm  -  mph - 45f -
5:36pm  -  mph - 45f -
5:30pm 14 17 mph 1013.8mb 45f 50f
5:24pm 14 18 mph 1014mb 45f 50f
5:18pm  -  mph 1014.2mb 45f 50f
5:12pm  -  mph 1014.3mb 45f 49f
5:06pm  -  mph 1014.4mb 45f 49f
5:00pm 16 21 mph 1014.8mb 46f 49f
4:54pm 16 21 mph 1015mb 46f 49f
4:48pm 17 21 mph 1015.4mb 46f 49f
4:42pm 17 22 mph 1015.6mb 46f 49f
4:36pm 17 21 mph 1015.5mb 46f 49f
4:30pm 20 23 mph 1015.6mb 46f 49f
4:24pm 17 22 mph 1015.7mb 46f 49f
4:18pm 17 24 mph 1015.7mb 46f 49f
4:12pm 17 23 mph 1015.8mb 46f 49f
4:06pm 20 24 mph 1016mb 46f 49f
4:00pm 18 24 mph 1016.2mb 46f 49f
3:54pm 20 24 mph 1016.2mb 46f 49f
3:48pm 21 24 mph 1016.4mb 46f 49f
3:42pm 18 23 mph 1016.3mb 46f 49f
3:36pm 17 24 mph 1016.3mb 46f 49f
3:30pm 17 23 mph 1016.4mb 46f 49f
3:24pm 18 23 mph 1016.7mb 46f 49f
3:18pm 21 26 mph 1016.8mb 46f 49f
3:12pm 21 25 mph 1016.9mb 46f 49f
3:06pm 20 25 mph 1017.1mb 46f 49f
3:00pm 20 24 mph 1017.3mb 46f 49f
2:54pm 20 23 mph 1017.2mb 46f 49f
2:48pm 18 23 mph 1017.4mb 46f 48f
2:42pm 16 23 mph 1017.5mb 46f 48f
2:36pm 18 22 mph 1017.6mb 46f 48f
2:30pm 17 23 mph 1017.8mb 46f 48f
2:24pm 17 21 mph 1018mb 46f 48f
2:18pm 18 23 mph 1018.1mb 46f 47f
2:12pm 18 22 mph 1018.2mb 46f 47f
2:06pm 17 22 mph 1018.5mb 46f 47f
2:00pm 17 21 mph 1018.5mb 46f 47f
1:54pm 18 21 mph 1018.5mb 46f 47f
1:48pm 17 21 mph 1018.5mb 46f 47f
1:42pm 17 21 mph 1018.5mb 46f 47f
1:36pm 15 21 mph 1018.6mb 46f 47f
1:30pm 21 23 mph 1018.5mb 46f 47f
1:24pm 20 23 mph 1018.8mb 46f 47f
1:18pm 18 23 mph 1019.1mb 46f 46f
1:12pm 18 22 mph 1019.3mb 47f 46f
1:06pm 18 22 mph 1019.5mb 47f 46f
1:00pm 14 18 mph 1019.5mb 47f 46f
12:54pm 16 18 mph 1019.5mb 47f 45f
12:48pm 6 14 mph 1019.7mb 47f 41f
12:42pm 2 3 mph 1020mb 47f 36f
12:36pm 5 7 mph 1020.4mb 47f 36f
12:30pm 6 8 mph 1020.6mb 47f 35f
12:24pm 6 7 mph 1020.2mb 47f 35f
12:18pm 6 7 mph 1020.4mb 47f 35f
12:12pm 6 7 mph 1020.6mb 47f 35f
12:06pm 6 7 mph 1020.8mb 47f 35f
12:00pm 6 7 mph 1021mb 47f 35f
11:54am 6 7 mph 1021.2mb 47f 35f
11:48am 6 7 mph 1021.4mb 47f 35f
11:42am 6 7 mph 1021.3mb 47f 35f
11:36am 6 7 mph 1021.5mb 47f 35f
11:30am 5 7 mph 1021.6mb 47f 35f
11:24am 6 7 mph 1021.5mb 47f 35f
11:18am 7 8 mph 1021.4mb 47f 35f
11:12am 7 8 mph 1021.4mb 47f 35f
11:06am 8 9 mph 1021.5mb 47f 35f
11:00am 7 8 mph 1021.5mb 47f 35f
10:54am 7 8 mph 1021.8mb 47f 35f
10:48am 6 7 mph 1021.8mb 47f 35f
10:42am 7 8 mph 1021.8mb 47f 35f
10:36am 7 8 mph 1021.8mb 47f 35f
10:30am 7 8 mph 1022mb 47f 35f
10:24am 6 8 mph 1022.1mb 47f 35f
10:18am 7 8 mph 1022.4mb 47f 35f
10:12am 7 9 mph 1022.4mb 47f 35f
10:06am 7 8 mph 1022.5mb 47f 35f
10:00am 7 8 mph 1022.4mb 47f 35f
9:54am 7 8 mph 1022.5mb 47f 35f
9:48am 6 8 mph 1022.5mb 47f 35f
9:42am 7
mph
1022.7mb 47f 35f
9:36am 6 8 mph 1022.7mb 47f 34f
9:30am 7 8 mph 1022.5mb 47f 34f
9:24am 8
mph
1022.4mb 47f 34f
9:18am 8 9 mph 1022.6mb 47f 34f
9:12am 8 9 mph 1022.8mb 47f 34f
9:06am 7 9 mph 1022.9mb 47f 35f
9:00am 8 9 mph 1023.1mb 47f 34f
8:54am 6 8 mph 1023.2mb 47f 34f
8:48am 7 8 mph 1023.3mb 47f 34f
8:42am 8 9 mph 1023.3mb 47f 34f
8:36am 7 8 mph 1023.2mb 47f 34f
8:30am 7 8 mph 1023mb 47f 34f
8:24am 6 7 mph 1023.1mb 47f 34f
8:18am 6 7 mph 1023.2mb 47f 34f
8:12am 6 9 mph 1022.9mb 47f 34f
8:06am 6 7 mph 1022.7mb 47f 34f
8:00am 5 6 mph 1022.8mb 47f 34f
7:54am 1 3 mph 1023.2mb 47f 34f
7:48am 2 5 mph 1023.1mb 47f 34f
7:42am 3 5 mph 1023.1mb 47f 34f
7:36am 3 5 mph 1023mb 46f 33f
7:30am 5 6 mph 1023.1mb 46f 33f
7:24am 5 8 mph 1023mb 45f 33f
7:18am 6 7 mph 1022.9mb 44f 33f
7:12am 6 7 mph 1022.9mb 44f 33f
7:06am 5 7 mph 1022.9mb 44f 33f
7:00am 5
mph
1023mb 44f 33f
6:54am 5 6 mph 1023.2mb 44f 33f
6:48am 5 7 mph 1023.3mb 44f 33f
6:42am 6 8 mph 1023.3mb 44f 33f
6:36am 6 7 mph 1023.4mb 44f 33f
6:30am 5 6 mph 1023.3mb 44f 33f
6:24am 6 8 mph 1023.3mb 44f 33f
6:18am 5 7 mph 1023.2mb 44f 33f
6:12am 6 7 mph 1023.3mb 44f 32f
6:06am 6 8 mph 1023.1mb 44f 32f
6:00am 5 6 mph 1023.3mb 44f 32f
5:54am 5 7 mph 1023.6mb 45f 32f
5:48am 6 7 mph 1023.5mb 45f 32f
5:42am 6 7 mph 1023.4mb 45f 32f
5:36am 7 9 mph 1023.2mb 45f 32f
5:30am 6 7 mph 1023.3mb 46f 32f
5:24am 5 7 mph 1023.4mb 46f 32f
5:18am 6 7 mph 1023.2mb 46f 32f
5:12am 7 8 mph 1023.3mb 46f 32f
5:06am 6 8 mph 1023.1mb 46f 31f
5:00am 7 10 mph 1022.9mb 46f 31f
4:54am 8 10 mph 1022.8mb 46f 31f
4:48am 6 8 mph 1023.1mb 46f 31f
4:42am 7 9 mph 1023.3mb 46f 31f
4:36am 7 8 mph 1023.3mb 46f 31f
4:30am 7 8 mph 1023.4mb 46f 32f
4:24am 7 8 mph 1023.2mb 46f 32f
4:18am 5 6 mph 1023.3mb 46f 32f
4:12am 5 6 mph 1023.5mb 46f 32f
4:06am 6 7 mph 1023.4mb 46f 31f
4:00am 6 7 mph 1023.3mb 46f 31f
3:54am 6 7 mph 1023.2mb 46f 31f
3:48am 6
mph
1023.2mb 46f 30f
3:42am 5
mph
1023.3mb 46f 30f
3:36am 3
mph
1023.3mb 46f 30f
3:30am 2 3 mph 1023.3mb 46f 30f
3:24am  -  1 mph 1023.4mb 47f 29f
3:18am 2
mph
1023.4mb 47f 29f
3:12am 2 3 mph 1023.1mb 47f 29f
3:06am 3
mph
1022.9mb 47f 29f
3:00am 2 3 mph 1022.8mb 47f 29f
2:54am 3
mph
1022.9mb 47f 29f
2:48am 1 2 mph 1023mb 47f 29f
2:42am  -  2 mph 1023.2mb 47f 29f
2:36am 2 3 mph 1023.3mb 47f 29f
2:30am 1 2 mph 1023.2mb 47f 29f
2:24am 1 2 mph 1023.3mb 47f 29f
2:18am 2 3 mph 1023.3mb 47f 29f
2:12am 2 3 mph 1023.1mb 47f 29f
2:06am 1 2 mph 1023.2mb 47f 28f
2:00am  -  2 mph 1023.3mb 47f 28f
1:54am 1 3 mph 1023.2mb 47f 28f
1:48am 3
mph
1023.1mb 47f 28f
1:42am 2
mph
1023mb 47f 27f
1:36am 1 2 mph 1022.8mb 47f 28f
1:30am 1 2 mph 1022.9mb 47f 28f
1:24am 1 2 mph 1022.8mb 47f 28f
1:18am 2 3 mph 1022.7mb 47f 28f
1:12am 2 3 mph 1022.6mb 47f 27f
1:06am 2 3 mph 1022.5mb 47f 28f
1:00am 2
mph
1022.3mb 47f 28f
12:54am  -  1 mph 1022.3mb 47f 28f
12:48am 1 2 mph 1022.6mb 47f 28f
12:42am 2 3 mph 1022.7mb 47f 29f
12:36am 3
mph
1022.6mb 47f 29f
12:30am 2 3 mph 1022.7mb 47f 29f